createdAt,value
2017-10-30T00:00:27.612Z,0.00
2017-10-30T00:01:37.032Z,0.00
2017-10-30T00:02:46.611Z,0.00
2017-10-30T00:03:55.756Z,0.00
2017-10-30T00:05:05.269Z,0.00
2017-10-30T00:06:14.775Z,0.00
2017-10-30T00:07:24.022Z,0.00
2017-10-30T00:08:33.248Z,0.00
2017-10-30T00:09:42.766Z,0.00
2017-10-30T00:10:52.059Z,0.00
2017-10-30T00:12:01.458Z,0.00
2017-10-30T00:13:10.848Z,0.00
2017-10-30T00:14:20.145Z,0.00
2017-10-30T00:15:29.502Z,0.00
2017-10-30T00:16:39.263Z,0.00
2017-10-30T00:17:48.289Z,0.00
2017-10-30T00:18:57.626Z,0.00
2017-10-30T00:20:07.311Z,0.00
2017-10-30T00:21:16.652Z,0.00
2017-10-30T00:22:25.792Z,0.00
2017-10-30T00:23:35.297Z,0.00
2017-10-30T00:24:45.061Z,0.00
2017-10-30T00:25:53.902Z,0.00
2017-10-30T00:27:03.574Z,0.00
2017-10-30T00:28:12.629Z,0.00
2017-10-30T00:29:22.005Z,0.00
2017-10-30T00:30:31.750Z,0.00
2017-10-30T00:31:40.772Z,0.00
2017-10-30T00:32:50.194Z,0.00
2017-10-30T00:33:59.512Z,0.00
2017-10-30T00:35:08.865Z,0.00
2017-10-30T00:36:18.332Z,0.00
2017-10-30T00:37:27.614Z,0.00
2017-10-30T00:38:36.982Z,0.00
2017-10-30T00:39:46.356Z,0.00
2017-10-30T00:40:55.755Z,0.00
2017-10-30T00:42:05.158Z,0.00
2017-10-30T00:43:14.479Z,0.00
2017-10-30T00:44:23.848Z,0.00
2017-10-30T00:45:33.228Z,0.00
2017-10-30T00:46:43.612Z,0.00
2017-10-30T00:47:51.957Z,0.00
2017-10-30T00:49:01.333Z,0.00
2017-10-30T00:50:10.737Z,0.00
2017-10-30T00:51:20.098Z,0.00
2017-10-30T00:52:29.490Z,0.00
2017-10-30T00:53:38.818Z,0.00
2017-10-30T00:54:48.170Z,0.00
2017-10-30T00:55:57.585Z,0.00
2017-10-30T00:57:07.921Z,0.00
2017-10-30T00:58:16.321Z,0.00
2017-10-30T00:59:25.649Z,0.00
2017-10-30T01:00:35.588Z,0.00
2017-10-30T01:01:44.398Z,0.00
2017-10-30T01:02:53.739Z,0.00
2017-10-30T01:04:03.155Z,0.00
2017-10-30T01:05:12.480Z,0.00
2017-10-30T01:06:21.857Z,0.00
2017-10-30T01:07:31.224Z,0.00
2017-10-30T01:08:40.570Z,0.00
2017-10-30T01:09:49.934Z,0.00
2017-10-30T01:10:59.341Z,0.00
2017-10-30T01:12:08.689Z,0.00
2017-10-30T01:13:18.067Z,0.00
2017-10-30T01:14:27.398Z,0.00
2017-10-30T01:15:36.756Z,0.00
2017-10-30T01:16:46.138Z,0.00
2017-10-30T01:17:55.481Z,0.00
2017-10-30T01:19:04.862Z,0.00
2017-10-30T01:20:14.743Z,0.00
2017-10-30T01:21:24.606Z,0.00
2017-10-30T01:22:32.978Z,0.00
2017-10-30T01:23:42.312Z,0.00
2017-10-30T01:24:51.674Z,0.00
2017-10-30T01:26:01.035Z,0.00
2017-10-30T01:27:11.015Z,0.00
2017-10-30T01:28:19.814Z,0.00
2017-10-30T01:29:29.141Z,0.00
2017-10-30T01:30:38.498Z,0.00
2017-10-30T01:31:47.907Z,0.00
2017-10-30T01:32:57.222Z,0.00
2017-10-30T01:34:07.231Z,0.00
2017-10-30T01:35:15.937Z,0.00
2017-10-30T01:36:25.425Z,0.00
2017-10-30T01:37:35.311Z,0.00
2017-10-30T01:38:44.057Z,0.00
2017-10-30T01:39:53.404Z,0.00
2017-10-30T01:41:03.244Z,0.00
2017-10-30T01:42:12.454Z,0.00
2017-10-30T01:43:22.145Z,0.00
2017-10-30T01:44:30.958Z,0.00
2017-10-30T01:45:40.210Z,0.00
2017-10-30T01:46:49.581Z,0.00
2017-10-30T01:47:58.962Z,0.00
2017-10-30T01:49:08.287Z,0.00
2017-10-30T01:50:17.716Z,0.00
2017-10-30T01:51:27.018Z,0.00
2017-10-30T01:52:36.370Z,0.00
2017-10-30T01:53:46.368Z,0.00
2017-10-30T01:54:55.087Z,0.00
2017-10-30T01:56:04.447Z,0.00
2017-10-30T01:57:13.890Z,0.00
2017-10-30T01:58:23.712Z,0.00
2017-10-30T01:59:32.600Z,0.00
2017-10-30T02:00:41.880Z,0.00
2017-10-30T02:01:51.302Z,0.00
2017-10-30T02:03:00.590Z,0.00
2017-10-30T02:04:09.946Z,0.00
2017-10-30T02:05:19.357Z,0.00
2017-10-30T02:06:28.710Z,0.00
2017-10-30T02:07:38.113Z,0.00
2017-10-30T02:08:47.389Z,0.00
2017-10-30T02:09:56.764Z,0.00
2017-10-30T02:11:06.068Z,0.00
2017-10-30T02:12:15.449Z,0.00
2017-10-30T02:13:24.779Z,0.00
2017-10-30T02:14:34.170Z,0.00
2017-10-30T02:15:43.493Z,0.00
2017-10-30T02:16:52.858Z,0.00
2017-10-30T02:18:02.250Z,0.00
2017-10-30T02:19:11.575Z,0.00
2017-10-30T02:20:20.902Z,0.00
2017-10-30T02:21:30.758Z,0.00
2017-10-30T02:22:39.652Z,0.00
2017-10-30T02:23:48.942Z,0.00
2017-10-30T02:24:58.308Z,0.00
2017-10-30T02:26:07.731Z,0.00
2017-10-30T02:27:17.242Z,0.00
2017-10-30T02:28:26.359Z,0.00
2017-10-30T02:29:36.222Z,0.00
2017-10-30T02:30:45.648Z,0.00
2017-10-30T02:31:55.159Z,0.00
2017-10-30T02:33:05.329Z,0.00
2017-10-30T02:34:13.628Z,0.00
2017-10-30T02:35:23.055Z,0.00
2017-10-30T02:36:31.840Z,0.00
2017-10-30T02:37:41.194Z,0.00
2017-10-30T02:38:50.526Z,0.00
2017-10-30T02:40:00.028Z,0.00
2017-10-30T02:41:09.238Z,0.00
2017-10-30T02:42:18.582Z,0.00
2017-10-30T02:43:27.924Z,0.00
2017-10-30T02:44:37.762Z,0.00
2017-10-30T02:45:46.619Z,0.00
2017-10-30T02:46:56.000Z,0.00
2017-10-30T02:48:05.311Z,0.00
2017-10-30T02:49:14.663Z,0.00
2017-10-30T02:50:29.072Z,0.00
2017-10-30T02:51:42.294Z,0.00
2017-10-30T02:52:51.383Z,0.00
2017-10-30T02:54:00.728Z,0.00
2017-10-30T02:55:10.168Z,0.00
2017-10-30T02:56:19.430Z,0.00
2017-10-30T02:57:28.858Z,0.00
2017-10-30T02:58:38.114Z,0.00
2017-10-30T02:59:48.008Z,0.00
2017-10-30T03:00:56.830Z,0.00
2017-10-30T03:02:06.185Z,0.00
2017-10-30T03:03:16.085Z,0.00
2017-10-30T03:04:25.413Z,0.00
2017-10-30T03:05:34.736Z,0.00
2017-10-30T03:06:44.078Z,0.00
2017-10-30T03:07:53.492Z,0.00
2017-10-30T03:09:02.890Z,0.00
2017-10-30T03:10:12.141Z,0.00
2017-10-30T03:11:21.057Z,0.00
2017-10-30T03:12:30.329Z,0.00
2017-10-30T03:13:39.711Z,0.00
2017-10-30T03:14:49.037Z,0.00
2017-10-30T03:15:58.835Z,0.00
2017-10-30T03:17:07.805Z,0.00
2017-10-30T03:18:17.047Z,0.00
2017-10-30T03:19:26.400Z,0.00
2017-10-30T03:20:35.840Z,0.00
2017-10-30T03:21:45.106Z,0.00
2017-10-30T03:22:54.517Z,0.00
2017-10-30T03:24:03.770Z,0.00
2017-10-30T03:25:13.110Z,0.00
2017-10-30T03:26:22.496Z,0.00
2017-10-30T03:27:32.347Z,0.00
2017-10-30T03:28:41.150Z,0.00
2017-10-30T03:29:50.484Z,0.00
2017-10-30T03:30:59.839Z,0.00
2017-10-30T03:32:09.203Z,0.00
2017-10-30T03:33:19.064Z,0.00
2017-10-30T03:34:27.977Z,0.00
2017-10-30T03:35:37.304Z,0.00
2017-10-30T03:36:46.596Z,0.00
2017-10-30T03:37:55.956Z,0.00
2017-10-30T03:39:05.248Z,0.00
2017-10-30T03:40:15.197Z,0.00
2017-10-30T03:41:23.934Z,0.00
2017-10-30T03:42:33.291Z,0.00
2017-10-30T03:43:42.614Z,0.00
2017-10-30T03:44:51.980Z,0.00
2017-10-30T03:46:01.338Z,0.00
2017-10-30T03:47:10.661Z,0.00
2017-10-30T03:48:19.996Z,0.00
2017-10-30T03:49:29.417Z,0.00
2017-10-30T03:50:38.672Z,0.00
2017-10-30T03:51:48.612Z,0.00
2017-10-30T03:52:57.395Z,0.00
2017-10-30T03:54:06.886Z,0.00
2017-10-30T03:55:16.051Z,0.00
2017-10-30T03:56:25.987Z,0.00
2017-10-30T03:57:34.815Z,0.00
2017-10-30T03:58:44.078Z,0.00
2017-10-30T03:59:53.455Z,0.00
2017-10-30T04:01:02.787Z,0.00
2017-10-30T04:02:12.132Z,0.00
2017-10-30T04:03:21.444Z,0.00
2017-10-30T04:04:31.591Z,0.00
2017-10-30T04:05:40.254Z,0.00
2017-10-30T04:06:50.278Z,0.00
2017-10-30T04:07:59.348Z,0.00
2017-10-30T04:09:08.675Z,0.00
2017-10-30T04:10:19.095Z,0.00
2017-10-30T04:11:27.425Z,0.00
2017-10-30T04:12:36.932Z,0.00
2017-10-30T04:13:45.560Z,0.00
2017-10-30T04:14:54.993Z,0.00
2017-10-30T04:16:04.316Z,0.00
2017-10-30T04:17:13.658Z,0.00
2017-10-30T04:18:23.481Z,0.00
2017-10-30T04:19:32.294Z,0.00
2017-10-30T04:20:41.721Z,0.00
2017-10-30T04:21:50.976Z,0.00
2017-10-30T04:23:00.297Z,0.00
2017-10-30T04:24:09.650Z,0.00
2017-10-30T04:25:18.987Z,0.00
2017-10-30T04:26:28.350Z,0.00
2017-10-30T04:27:37.792Z,0.00
2017-10-30T04:28:47.101Z,0.00
2017-10-30T04:29:56.370Z,0.00
2017-10-30T04:31:05.714Z,0.00
2017-10-30T04:32:15.265Z,0.00
2017-10-30T04:33:24.412Z,0.00
2017-10-30T04:34:33.833Z,0.00
2017-10-30T04:35:43.106Z,0.00
2017-10-30T04:36:52.457Z,0.00
2017-10-30T04:38:01.832Z,0.00
2017-10-30T04:39:11.237Z,0.00
2017-10-30T04:40:20.525Z,0.00
2017-10-30T04:41:29.858Z,0.00
2017-10-30T04:42:39.333Z,0.00
2017-10-30T04:43:48.644Z,0.00
2017-10-30T04:44:57.915Z,0.00
2017-10-30T04:46:07.309Z,0.00
2017-10-30T04:47:16.623Z,0.00
2017-10-30T04:48:26.008Z,0.00
2017-10-30T04:49:35.342Z,0.00
2017-10-30T04:50:44.707Z,0.00
2017-10-30T04:51:54.069Z,0.00
2017-10-30T04:53:03.452Z,0.00
2017-10-30T04:54:12.794Z,0.00
2017-10-30T04:55:22.213Z,0.00
2017-10-30T04:56:31.534Z,0.00
2017-10-30T04:57:40.989Z,0.00
2017-10-30T04:58:50.253Z,0.00
2017-10-30T04:59:59.719Z,0.00
2017-10-30T05:01:09.008Z,0.00
2017-10-30T05:02:18.445Z,0.00
2017-10-30T05:03:27.741Z,0.00
2017-10-30T05:04:37.120Z,0.00
2017-10-30T05:05:46.549Z,0.00
2017-10-30T05:06:55.820Z,0.00
2017-10-30T05:08:05.234Z,0.00
2017-10-30T05:09:14.627Z,0.00
2017-10-30T05:10:23.956Z,0.00
2017-10-30T05:11:33.378Z,0.00
2017-10-30T05:12:42.659Z,0.00
2017-10-30T05:13:52.060Z,0.00
2017-10-30T05:15:01.401Z,0.00
2017-10-30T05:16:10.787Z,0.00
2017-10-30T05:17:20.125Z,0.00
2017-10-30T05:18:29.537Z,0.00
2017-10-30T05:19:38.871Z,0.00
2017-10-30T05:20:48.238Z,0.00
2017-10-30T05:21:57.629Z,0.00
2017-10-30T05:23:06.976Z,0.00
2017-10-30T05:24:16.555Z,0.00
2017-10-30T05:25:25.875Z,0.00
2017-10-30T05:26:35.089Z,0.00
2017-10-30T05:27:44.453Z,0.00
2017-10-30T05:28:54.136Z,0.00
2017-10-30T05:30:03.206Z,0.00
2017-10-30T05:31:13.555Z,0.00
2017-10-30T05:32:22.470Z,0.00
2017-10-30T05:33:31.386Z,0.00
2017-10-30T05:34:40.716Z,0.00
2017-10-30T05:35:50.145Z,0.00
2017-10-30T05:36:59.431Z,0.00
2017-10-30T05:38:08.818Z,0.00
2017-10-30T05:39:18.242Z,4.00
2017-10-30T05:40:27.648Z,4.00
2017-10-30T05:41:37.995Z,0.00
2017-10-30T05:42:46.328Z,4.00
2017-10-30T05:43:55.732Z,4.00
2017-10-30T05:45:05.339Z,4.00
2017-10-30T05:46:14.484Z,4.00
2017-10-30T05:47:23.908Z,8.00
2017-10-30T05:48:33.234Z,8.00
2017-10-30T05:49:42.646Z,12.00
2017-10-30T05:50:52.088Z,16.00
2017-10-30T05:52:01.416Z,16.00
2017-10-30T05:53:10.755Z,24.00
2017-10-30T05:54:20.169Z,24.00
2017-10-30T05:55:29.780Z,28.00
2017-10-30T05:56:38.895Z,36.00
2017-10-30T05:57:48.349Z,48.00
2017-10-30T05:58:58.189Z,60.00
2017-10-30T06:00:07.288Z,72.00
2017-10-30T06:01:16.401Z,84.00
2017-10-30T06:02:26.319Z,100.00
2017-10-30T06:03:35.188Z,116.00
2017-10-30T06:04:44.610Z,136.00
2017-10-30T06:05:54.037Z,152.00
2017-10-30T06:07:03.366Z,172.00
2017-10-30T06:08:12.792Z,192.00
2017-10-30T06:09:22.119Z,216.00
2017-10-30T06:10:31.461Z,240.00
2017-10-30T06:11:41.460Z,268.00
2017-10-30T06:12:50.709Z,300.00
2017-10-30T06:13:59.701Z,332.00
2017-10-30T06:15:09.156Z,360.00
2017-10-30T06:16:18.384Z,392.00
2017-10-30T06:17:27.722Z,428.00
2017-10-30T06:18:37.091Z,468.00
2017-10-30T06:19:46.560Z,508.00
2017-10-30T06:20:56.068Z,552.00
2017-10-30T06:22:05.439Z,596.00
2017-10-30T06:23:14.641Z,640.00
2017-10-30T06:24:24.069Z,684.00
2017-10-30T06:25:33.662Z,724.00
2017-10-30T06:26:42.799Z,768.00
2017-10-30T06:27:52.249Z,816.00
2017-10-30T06:29:01.739Z,872.00
2017-10-30T06:30:10.964Z,924.00
2017-10-30T06:31:21.397Z,980.00
2017-10-30T06:32:30.013Z,1044.00
2017-10-30T06:33:39.185Z,1096.00
2017-10-30T06:34:48.689Z,1156.00
2017-10-30T06:35:58.467Z,1220.00
2017-10-30T06:37:07.318Z,1280.00
2017-10-30T06:38:16.706Z,1364.00
2017-10-30T06:39:26.710Z,1416.00
2017-10-30T06:40:35.550Z,1520.00
2017-10-30T06:41:45.504Z,1612.00
2017-10-30T06:42:54.379Z,1664.00
2017-10-30T06:44:04.000Z,1724.00
2017-10-30T06:45:13.592Z,1772.00
2017-10-30T06:46:23.121Z,1820.00
2017-10-30T06:47:31.912Z,1860.00
2017-10-30T06:48:41.786Z,1920.00
2017-10-30T06:49:50.699Z,2012.00
2017-10-30T06:51:00.112Z,2048.00
2017-10-30T06:52:09.540Z,2124.00
2017-10-30T06:53:18.920Z,2128.00
2017-10-30T06:54:28.377Z,2200.00
2017-10-30T06:55:37.722Z,2264.00
2017-10-30T06:56:47.136Z,2344.00
2017-10-30T06:57:57.582Z,2380.00
2017-10-30T06:59:05.930Z,2340.00
2017-10-30T07:00:15.416Z,2512.00
2017-10-30T07:01:25.379Z,2588.00
2017-10-30T07:02:34.741Z,2744.00
2017-10-30T07:03:43.599Z,2808.00
2017-10-30T07:04:53.025Z,2832.00
2017-10-30T07:06:02.520Z,2960.00
2017-10-30T07:07:12.556Z,3216.00
2017-10-30T07:08:21.207Z,3368.00
2017-10-30T07:09:30.635Z,3368.00
2017-10-30T07:10:40.032Z,3308.00
2017-10-30T07:11:49.475Z,3400.00
2017-10-30T07:12:58.999Z,3400.00
2017-10-30T07:14:09.283Z,3284.00
2017-10-30T07:15:18.288Z,3116.00
2017-10-30T07:16:27.617Z,3028.00
2017-10-30T07:17:37.206Z,2896.00
2017-10-30T07:18:46.532Z,2804.00
2017-10-30T07:19:55.893Z,2700.00
2017-10-30T07:21:04.815Z,2600.00
2017-10-30T07:22:14.214Z,2624.00
2017-10-30T07:23:23.621Z,2736.00
2017-10-30T07:24:33.684Z,2896.00
2017-10-30T07:25:42.592Z,3096.00
2017-10-30T07:26:51.960Z,3156.00
2017-10-30T07:28:01.294Z,3032.00
2017-10-30T07:29:11.247Z,2836.00
2017-10-30T07:30:20.075Z,2716.00
2017-10-30T07:31:29.504Z,2712.00
2017-10-30T07:32:38.918Z,2836.00
2017-10-30T07:33:48.289Z,3080.00
2017-10-30T07:34:57.700Z,3520.00
2017-10-30T07:36:07.172Z,4048.00
2017-10-30T07:37:16.675Z,4400.00
2017-10-30T07:38:25.956Z,4512.00
2017-10-30T07:39:35.354Z,4484.00
2017-10-30T07:40:44.756Z,4252.00
2017-10-30T07:41:54.211Z,4248.00
2017-10-30T07:43:03.899Z,4560.00
2017-10-30T07:44:13.009Z,4848.00
2017-10-30T07:45:22.432Z,4680.00
2017-10-30T07:46:31.847Z,4208.00
2017-10-30T07:47:41.300Z,3860.00
2017-10-30T07:48:51.201Z,3700.00
2017-10-30T07:50:00.136Z,3632.00
2017-10-30T07:51:09.634Z,3616.00
2017-10-30T07:52:18.989Z,3764.00
2017-10-30T07:53:28.428Z,3952.00
2017-10-30T07:54:37.918Z,4136.00
2017-10-30T07:55:47.252Z,4328.00
2017-10-30T07:56:56.683Z,4480.00
2017-10-30T07:58:06.219Z,4676.00
2017-10-30T07:59:15.544Z,4880.00
2017-10-30T08:00:24.972Z,5260.00
2017-10-30T08:01:34.485Z,5808.00
2017-10-30T08:02:43.856Z,6240.00
2017-10-30T08:03:53.276Z,6472.00
2017-10-30T08:05:02.771Z,6292.00
2017-10-30T08:06:12.202Z,6316.00
2017-10-30T08:07:21.574Z,6260.00
2017-10-30T08:08:31.069Z,5912.00
2017-10-30T08:09:40.482Z,5788.00
2017-10-30T08:10:50.498Z,5848.00
2017-10-30T08:11:59.957Z,6144.00
2017-10-30T08:13:09.344Z,6656.00
2017-10-30T08:14:18.566Z,7152.00
2017-10-30T08:15:27.711Z,7368.00
2017-10-30T08:16:37.253Z,7448.00
2017-10-30T08:17:46.661Z,7584.00
2017-10-30T08:18:56.112Z,7624.00
2017-10-30T08:20:05.544Z,7404.00
2017-10-30T08:21:15.133Z,7120.00
2017-10-30T08:22:24.559Z,7268.00
2017-10-30T08:23:34.040Z,7684.00
2017-10-30T08:24:43.395Z,8040.00
2017-10-30T08:25:52.856Z,7976.00
2017-10-30T08:27:02.415Z,7740.00
2017-10-30T08:28:12.046Z,7672.00
2017-10-30T08:29:21.282Z,7784.00
2017-10-30T08:30:30.964Z,7812.00
2017-10-30T08:31:40.740Z,8080.00
2017-10-30T08:32:49.760Z,8556.00
2017-10-30T08:33:59.306Z,8596.00
2017-10-30T08:35:08.716Z,8508.00
2017-10-30T08:36:18.249Z,8696.00
2017-10-30T08:37:27.648Z,8844.00
2017-10-30T08:38:37.988Z,8676.00
2017-10-30T08:39:46.920Z,8708.00
2017-10-30T08:40:56.119Z,8756.00
2017-10-30T08:42:06.166Z,8592.00
2017-10-30T08:43:15.799Z,8400.00
2017-10-30T08:44:25.243Z,8368.00
2017-10-30T08:45:35.617Z,8528.00
2017-10-30T08:46:44.215Z,8544.00
2017-10-30T08:47:53.733Z,8228.00
2017-10-30T08:49:03.205Z,8256.00
2017-10-30T08:50:12.779Z,8496.00
2017-10-30T08:51:22.450Z,8760.00
2017-10-30T08:52:31.612Z,9116.00
2017-10-30T08:53:42.311Z,9644.00
2017-10-30T08:54:50.738Z,10120.00
2017-10-30T08:56:00.238Z,10292.00
2017-10-30T08:57:09.778Z,10448.00
2017-10-30T08:58:19.226Z,10556.00
2017-10-30T08:59:28.261Z,10568.00
2017-10-30T09:00:37.909Z,10620.00
2017-10-30T09:01:47.335Z,10788.00
2017-10-30T09:02:56.836Z,10988.00
2017-10-30T09:04:07.065Z,11080.00
2017-10-30T09:05:15.854Z,11012.00
2017-10-30T09:06:25.399Z,10816.00
2017-10-30T09:07:34.864Z,10584.00
2017-10-30T09:08:44.524Z,10564.00
2017-10-30T09:09:54.179Z,10756.00
2017-10-30T09:11:03.414Z,10984.00
2017-10-30T09:12:12.957Z,11212.00
2017-10-30T09:13:22.572Z,11444.00
2017-10-30T09:14:32.199Z,11488.00
2017-10-30T09:15:41.630Z,11464.00
2017-10-30T09:16:51.097Z,11352.00
2017-10-30T09:18:00.733Z,11172.00
2017-10-30T09:19:10.432Z,11028.00
2017-10-30T09:20:20.272Z,10960.00
2017-10-30T09:21:29.895Z,11112.00
2017-10-30T09:22:38.805Z,11368.00
2017-10-30T09:23:48.329Z,11496.00
2017-10-30T09:24:57.930Z,11912.00
2017-10-30T09:26:07.447Z,12344.00
2017-10-30T09:27:16.977Z,12908.00
2017-10-30T09:28:26.610Z,13184.00
2017-10-30T09:29:36.089Z,13424.00
2017-10-30T09:30:45.672Z,13348.00
2017-10-30T09:31:55.300Z,13552.00
2017-10-30T09:33:04.773Z,13644.00
2017-10-30T09:34:14.324Z,13464.00
2017-10-30T09:35:24.010Z,13200.00
2017-10-30T09:36:33.531Z,13172.00
2017-10-30T09:37:43.028Z,13312.00
2017-10-30T09:38:52.616Z,13472.00
2017-10-30T09:40:02.319Z,13476.00
2017-10-30T09:41:11.754Z,13136.00
2017-10-30T09:42:21.317Z,12804.00
2017-10-30T09:43:30.897Z,12456.00
2017-10-30T09:44:40.544Z,11856.00
2017-10-30T09:45:50.089Z,11224.00
2017-10-30T09:46:59.611Z,10592.00
2017-10-30T09:48:09.172Z,10412.00
2017-10-30T09:49:18.736Z,10972.00
2017-10-30T09:50:28.404Z,11772.00
2017-10-30T09:51:37.937Z,12264.00
2017-10-30T09:52:47.440Z,12656.00
2017-10-30T09:53:57.097Z,12212.00
2017-10-30T09:55:07.317Z,11892.00
2017-10-30T09:56:16.188Z,12396.00
2017-10-30T09:57:25.789Z,13188.00
2017-10-30T09:58:35.395Z,13500.00
2017-10-30T09:59:44.877Z,13436.00
2017-10-30T10:00:54.956Z,13304.00
2017-10-30T10:02:04.190Z,13164.00
2017-10-30T10:03:13.605Z,13244.00
2017-10-30T10:04:23.190Z,13548.00
2017-10-30T10:05:32.886Z,13964.00
2017-10-30T10:06:42.878Z,14300.00
2017-10-30T10:07:51.971Z,14592.00
2017-10-30T10:09:02.529Z,14960.00
2017-10-30T10:10:11.137Z,14476.00
2017-10-30T10:11:20.951Z,13520.00
2017-10-30T10:12:30.311Z,12520.00
2017-10-30T10:13:39.929Z,11672.00
2017-10-30T10:14:49.491Z,11152.00
2017-10-30T10:15:59.095Z,10896.00
2017-10-30T10:17:08.687Z,10772.00
2017-10-30T10:18:18.261Z,10676.00
2017-10-30T10:19:27.826Z,10432.00
2017-10-30T10:20:37.422Z,9980.00
2017-10-30T10:21:47.009Z,9260.00
2017-10-30T10:22:56.586Z,8996.00
2017-10-30T10:24:06.118Z,8992.00
2017-10-30T10:25:15.747Z,9456.00
2017-10-30T10:26:25.288Z,11288.00
2017-10-30T10:27:35.862Z,11996.00
2017-10-30T10:28:44.504Z,12080.00
2017-10-30T10:29:54.001Z,12080.00
2017-10-30T10:31:03.680Z,11064.00
2017-10-30T10:32:13.196Z,10676.00
2017-10-30T10:33:22.769Z,13124.00
2017-10-30T10:34:32.400Z,12008.00
2017-10-30T10:35:41.954Z,10328.00
2017-10-30T10:36:51.651Z,10576.00
2017-10-30T10:38:01.197Z,10392.00
2017-10-30T10:39:11.342Z,9508.00
2017-10-30T10:40:20.364Z,8984.00
2017-10-30T10:41:29.934Z,8732.00
2017-10-30T10:42:39.557Z,8968.00
2017-10-30T10:43:49.116Z,9528.00
2017-10-30T10:44:58.702Z,8020.00
2017-10-30T10:46:08.317Z,7444.00
2017-10-30T10:47:17.918Z,7404.00
2017-10-30T10:48:27.559Z,8144.00
2017-10-30T10:49:37.053Z,9788.00
2017-10-30T10:50:46.654Z,11184.00
2017-10-30T10:51:56.278Z,11596.00
2017-10-30T10:53:05.927Z,12652.00
2017-10-30T10:54:15.442Z,14760.00
2017-10-30T10:55:25.034Z,16764.00
2017-10-30T10:56:34.706Z,18368.00
2017-10-30T10:57:44.377Z,16968.00
2017-10-30T10:58:53.984Z,14196.00
2017-10-30T11:00:03.605Z,14532.00
2017-10-30T11:01:13.257Z,15208.00
2017-10-30T11:02:22.941Z,15364.00
2017-10-30T11:03:32.863Z,14844.00
2017-10-30T11:04:42.268Z,16172.00
2017-10-30T11:05:51.972Z,18624.00
2017-10-30T11:07:01.632Z,20288.00
2017-10-30T11:08:11.871Z,21056.00
2017-10-30T11:09:21.998Z,20192.00
2017-10-30T11:10:30.718Z,16308.00
2017-10-30T11:11:40.450Z,14564.00
2017-10-30T11:12:50.364Z,14108.00
2017-10-30T11:13:59.819Z,15344.00
2017-10-30T11:15:09.555Z,15976.00
2017-10-30T11:16:19.284Z,16292.00
2017-10-30T11:17:28.920Z,17096.00
2017-10-30T11:18:38.875Z,16904.00
2017-10-30T11:19:48.288Z,16224.00
2017-10-30T11:20:58.022Z,15932.00
2017-10-30T11:22:08.267Z,16264.00
2017-10-30T11:23:17.405Z,16372.00
2017-10-30T11:24:27.049Z,16808.00
2017-10-30T11:25:36.757Z,16664.00
2017-10-30T11:26:46.492Z,16720.00
2017-10-30T11:27:56.197Z,17536.00
2017-10-30T11:29:06.045Z,15956.00
2017-10-30T11:30:15.499Z,14204.00
2017-10-30T11:31:25.194Z,13220.00
2017-10-30T11:32:34.858Z,12952.00
2017-10-30T11:33:44.567Z,12496.00
2017-10-30T11:34:54.710Z,11852.00
2017-10-30T11:36:03.895Z,11272.00
2017-10-30T11:37:13.600Z,10828.00
2017-10-30T11:38:23.338Z,10784.00
2017-10-30T11:39:32.975Z,11172.00
2017-10-30T11:40:42.608Z,11196.00
2017-10-30T11:41:52.191Z,11828.00
2017-10-30T11:43:01.875Z,12828.00
2017-10-30T11:44:11.496Z,12996.00
2017-10-30T11:45:21.135Z,11240.00
2017-10-30T11:46:30.865Z,9232.00
2017-10-30T11:47:40.497Z,7916.00
2017-10-30T11:48:50.320Z,7632.00
2017-10-30T11:49:59.678Z,6908.00
2017-10-30T11:51:09.298Z,6368.00
2017-10-30T11:52:18.928Z,6876.00
2017-10-30T11:53:28.522Z,29088.00
2017-10-30T11:54:38.171Z,28576.00
2017-10-30T11:55:47.823Z,24000.00
2017-10-30T11:56:57.535Z,28800.00
2017-10-30T11:58:07.190Z,33376.00
2017-10-30T11:59:17.153Z,15244.00
2017-10-30T12:00:26.636Z,36352.00
2017-10-30T12:01:37.319Z,35520.00
2017-10-30T12:02:46.038Z,41152.00
2017-10-30T12:03:56.052Z,35328.00
2017-10-30T12:05:05.573Z,26944.00
2017-10-30T12:06:15.388Z,24640.00
2017-10-30T12:07:25.276Z,19360.00
2017-10-30T12:08:35.032Z,14120.00
2017-10-30T12:09:45.035Z,13096.00
2017-10-30T12:10:54.644Z,14476.00
2017-10-30T12:12:04.439Z,17084.00
2017-10-30T12:13:14.228Z,17824.00
2017-10-30T12:14:24.036Z,29536.00
2017-10-30T12:15:33.787Z,16604.00
2017-10-30T12:16:43.571Z,16344.00
2017-10-30T12:17:53.315Z,26784.00
2017-10-30T12:19:04.188Z,32832.00
2017-10-30T12:20:12.963Z,29952.00
2017-10-30T12:21:22.628Z,28352.00
2017-10-30T12:22:32.426Z,28640.00
2017-10-30T12:23:42.547Z,27456.00
2017-10-30T12:24:52.202Z,26496.00
2017-10-30T12:26:01.963Z,23680.00
2017-10-30T12:27:11.750Z,29376.00
2017-10-30T12:28:21.643Z,31232.00
2017-10-30T12:29:31.664Z,33216.00
2017-10-30T12:30:41.418Z,24736.00
2017-10-30T12:31:51.257Z,20960.00
2017-10-30T12:33:01.606Z,20480.00
2017-10-30T12:34:11.567Z,20576.00
2017-10-30T12:35:20.835Z,19968.00
2017-10-30T12:36:30.684Z,19840.00
2017-10-30T12:37:40.523Z,19872.00
2017-10-30T12:38:50.400Z,27104.00
2017-10-30T12:40:00.182Z,20032.00
2017-10-30T12:41:09.987Z,20000.00
2017-10-30T12:42:19.895Z,19104.00
2017-10-30T12:43:29.607Z,18016.00
2017-10-30T12:44:39.484Z,16656.00
2017-10-30T12:45:49.308Z,17184.00
2017-10-30T12:46:59.041Z,16028.00
2017-10-30T12:48:08.881Z,14900.00
2017-10-30T12:49:18.631Z,14432.00
2017-10-30T12:50:28.349Z,13820.00
2017-10-30T12:51:38.704Z,12972.00
2017-10-30T12:52:47.925Z,12600.00
2017-10-30T12:53:57.642Z,13192.00
2017-10-30T12:55:07.359Z,14464.00
2017-10-30T12:56:17.100Z,15712.00
2017-10-30T12:57:26.842Z,16524.00
2017-10-30T12:58:36.598Z,16832.00
2017-10-30T12:59:46.356Z,17440.00
2017-10-30T13:00:56.031Z,19488.00
2017-10-30T13:02:05.767Z,26496.00
2017-10-30T13:03:15.540Z,21568.00
2017-10-30T13:04:25.306Z,33568.00
2017-10-30T13:05:35.013Z,16520.00
2017-10-30T13:06:44.750Z,15416.00
2017-10-30T13:07:54.494Z,16108.00
2017-10-30T13:09:04.265Z,15132.00
2017-10-30T13:10:14.057Z,14888.00
2017-10-30T13:11:23.791Z,24512.00
2017-10-30T13:12:33.466Z,34176.00
2017-10-30T13:13:43.218Z,11148.00
2017-10-30T13:14:52.991Z,10448.00
2017-10-30T13:16:03.242Z,26304.00
2017-10-30T13:17:12.469Z,11560.00
2017-10-30T13:18:22.207Z,13428.00
2017-10-30T13:19:32.222Z,13612.00
2017-10-30T13:20:42.161Z,13292.00
2017-10-30T13:21:51.409Z,12572.00
2017-10-30T13:23:01.142Z,11600.00
2017-10-30T13:24:10.860Z,12184.00
2017-10-30T13:25:20.610Z,36416.00
2017-10-30T13:26:30.248Z,16280.00
2017-10-30T13:27:39.947Z,22208.00
2017-10-30T13:28:49.674Z,10712.00
2017-10-30T13:29:59.467Z,10536.00
2017-10-30T13:31:09.083Z,28576.00
2017-10-30T13:32:18.823Z,26880.00
2017-10-30T13:33:28.480Z,11656.00
2017-10-30T13:34:38.371Z,19424.00
2017-10-30T13:35:47.868Z,14764.00
2017-10-30T13:36:57.566Z,37376.00
2017-10-30T13:38:07.288Z,23936.00
2017-10-30T13:39:16.998Z,12540.00
2017-10-30T13:40:26.697Z,13384.00
2017-10-30T13:41:36.403Z,12604.00
2017-10-30T13:42:46.113Z,13360.00
2017-10-30T13:43:55.825Z,13784.00
2017-10-30T13:45:05.559Z,15872.00
2017-10-30T13:46:15.233Z,21792.00
2017-10-30T13:47:24.941Z,17536.00
2017-10-30T13:48:34.669Z,22240.00
2017-10-30T13:49:44.455Z,14188.00
2017-10-30T13:50:54.053Z,12172.00
2017-10-30T13:52:03.766Z,11736.00
2017-10-30T13:53:13.953Z,12092.00
2017-10-30T13:54:23.222Z,10764.00
2017-10-30T13:55:32.828Z,10912.00
2017-10-30T13:56:42.512Z,13588.00
2017-10-30T13:57:52.201Z,19360.00
2017-10-30T13:59:02.010Z,21472.00
2017-10-30T14:00:11.646Z,16196.00
2017-10-30T14:01:21.284Z,20192.00
2017-10-30T14:02:30.947Z,22400.00
2017-10-30T14:03:40.650Z,14148.00
2017-10-30T14:04:50.402Z,11908.00
2017-10-30T14:06:00.679Z,10600.00
2017-10-30T14:07:09.852Z,9488.00
2017-10-30T14:08:19.433Z,8884.00
2017-10-30T14:09:29.403Z,9436.00
2017-10-30T14:10:38.853Z,10500.00
2017-10-30T14:11:48.494Z,9692.00
2017-10-30T14:12:58.296Z,9768.00
2017-10-30T14:14:07.851Z,9324.00
2017-10-30T14:15:17.697Z,9088.00
2017-10-30T14:16:27.166Z,8860.00
2017-10-30T14:17:36.832Z,8656.00
2017-10-30T14:18:46.491Z,8484.00
2017-10-30T14:19:56.149Z,8368.00
2017-10-30T14:21:05.812Z,8276.00
2017-10-30T14:22:15.419Z,8528.00
2017-10-30T14:23:25.120Z,8316.00
2017-10-30T14:24:34.937Z,7876.00
2017-10-30T14:25:44.836Z,7500.00